sensor_id;sensor_type;location;lat;lon;timestamp;pressure;altitude;pressure_sealevel;temperature;humidity
73016;BME280;61893;50.074;14.440;2023-03-15T00:00:52;97737.72;;;4.24;62.42
73016;BME280;61893;50.074;14.440;2023-03-15T00:03:48;97731.44;;;4.15;61.15
73016;BME280;61893;50.074;14.440;2023-03-15T00:06:33;97736.91;;;4.02;63.29
73016;BME280;61893;50.074;14.440;2023-03-15T00:09:00;97735.00;;;4.04;64.21
73016;BME280;61893;50.074;14.440;2023-03-15T00:11:38;97741.91;;;4.05;62.92
73016;BME280;61893;50.074;14.440;2023-03-15T00:14:38;97748.97;;;4.05;63.73
73016;BME280;61893;50.074;14.440;2023-03-15T00:17:20;97752.25;;;3.97;62.95
73016;BME280;61893;50.074;14.440;2023-03-15T00:20:30;97761.50;;;3.92;64.78
73016;BME280;61893;50.074;14.440;2023-03-15T00:23:39;97761.25;;;3.95;63.34
73016;BME280;61893;50.074;14.440;2023-03-15T00:26:33;97769.03;;;3.96;62.82
73016;BME280;61893;50.074;14.440;2023-03-15T00:29:14;97775.25;;;3.95;63.55
73016;BME280;61893;50.074;14.440;2023-03-15T00:31:55;97775.63;;;3.91;65.06
73016;BME280;61893;50.074;14.440;2023-03-15T00:34:35;97776.34;;;3.93;64.24
73016;BME280;61893;50.074;14.440;2023-03-15T00:37:17;97774.41;;;3.95;63.69
73016;BME280;61893;50.074;14.440;2023-03-15T00:40:22;97770.31;;;4.02;63.18
73016;BME280;61893;50.074;14.440;2023-03-15T00:43:03;97772.28;;;3.89;63.28
73016;BME280;61893;50.074;14.440;2023-03-15T00:45:29;97774.97;;;3.77;63.17
73016;BME280;61893;50.074;14.440;2023-03-15T00:48:03;97776.16;;;3.64;64.21
73016;BME280;61893;50.074;14.440;2023-03-15T00:50:43;97777.50;;;3.58;64.61
73016;BME280;61893;50.074;14.440;2023-03-15T00:53:10;97788.75;;;3.49;63.45
73016;BME280;61893;50.074;14.440;2023-03-15T00:55:36;97786.53;;;3.44;64.60
73016;BME280;61893;50.074;14.440;2023-03-15T00:58:28;97794.47;;;3.33;64.04
73016;BME280;61893;50.074;14.440;2023-03-15T01:00:53;97792.75;;;3.32;63.93
73016;BME280;61893;50.074;14.440;2023-03-15T01:03:19;97794.13;;;3.26;63.26
73016;BME280;61893;50.074;14.440;2023-03-15T01:05:45;97799.03;;;3.20;63.74
73016;BME280;61893;50.074;14.440;2023-03-15T01:08:12;97810.50;;;3.19;64.01
73016;BME280;61893;50.074;14.440;2023-03-15T01:10:41;97817.31;;;3.21;64.29
73016;BME280;61893;50.074;14.440;2023-03-15T01:13:10;97807.31;;;3.15;63.18
73016;BME280;61893;50.074;14.440;2023-03-15T01:15:35;97809.22;;;3.13;63.25
73016;BME280;61893;50.074;14.440;2023-03-15T01:18:02;97819.47;;;3.16;63.68
73016;BME280;61893;50.074;14.440;2023-03-15T01:20:28;97805.25;;;3.19;62.52
73016;BME280;61893;50.074;14.440;2023-03-15T01:22:55;97801.44;;;3.11;62.88
73016;BME280;61893;50.074;14.440;2023-03-15T01:25:21;97809.78;;;3.16;63.36
73016;BME280;61893;50.074;14.440;2023-03-15T01:27:47;97804.06;;;3.11;62.74
73016;BME280;61893;50.074;14.440;2023-03-15T01:30:14;97810.38;;;3.20;63.57
73016;BME280;61893;50.074;14.440;2023-03-15T01:32:43;97811.25;;;3.09;62.56
73016;BME280;61893;50.074;14.440;2023-03-15T01:35:09;97820.72;;;3.01;62.59
73016;BME280;61893;50.074;14.440;2023-03-15T01:37:35;97823.94;;;2.93;62.64
73016;BME280;61893;50.074;14.440;2023-03-15T01:40:00;97825.03;;;2.90;63.88
73016;BME280;61893;50.074;14.440;2023-03-15T01:42:26;97838.25;;;2.89;64.08
73016;BME280;61893;50.074;14.440;2023-03-15T01:44:57;97831.09;;;2.91;63.22
73016;BME280;61893;50.074;14.440;2023-03-15T01:47:27;97827.06;;;2.76;63.73
73016;BME280;61893;50.074;14.440;2023-03-15T01:49:57;97826.72;;;2.69;62.76
73016;BME280;61893;50.074;14.440;2023-03-15T01:52:33;97824.69;;;2.61;63.76
73016;BME280;61893;50.074;14.440;2023-03-15T01:55:06;97809.91;;;2.49;63.74
73016;BME280;61893;50.074;14.440;2023-03-15T01:57:38;97801.16;;;2.60;63.34
73016;BME280;61893;50.074;14.440;2023-03-15T02:00:09;97801.06;;;2.50;64.96
73016;BME280;61893;50.074;14.440;2023-03-15T02:02:52;97813.13;;;2.41;63.98
73016;BME280;61893;50.074;14.440;2023-03-15T02:05:22;97818.22;;;2.43;65.88
73016;BME280;61893;50.074;14.440;2023-03-15T02:07:49;97821.09;;;2.40;63.95
73016;BME280;61893;50.074;14.440;2023-03-15T02:10:25;97822.66;;;2.31;64.62
73016;BME280;61893;50.074;14.440;2023-03-15T02:12:53;97842.47;;;2.35;63.95
73016;BME280;61893;50.074;14.440;2023-03-15T02:15:20;97849.50;;;2.23;65.57
73016;BME280;61893;50.074;14.440;2023-03-15T02:17:47;97847.13;;;2.20;65.92
73016;BME280;61893;50.074;14.440;2023-03-15T02:23:14;97865.13;;;2.25;67.27
73016;BME280;61893;50.074;14.440;2023-03-15T02:28:16;97859.03;;;2.24;64.08
73016;BME280;61893;50.074;14.440;2023-03-15T02:30:45;97861.75;;;2.23;65.29
73016;BME280;61893;50.074;14.440;2023-03-15T02:33:57;97862.56;;;2.01;64.56
73016;BME280;61893;50.074;14.440;2023-03-15T02:38:49;97872.59;;;2.07;69.52
73016;BME280;61893;50.074;14.440;2023-03-15T02:41:27;97865.88;;;2.03;68.62
73016;BME280;61893;50.074;14.440;2023-03-15T02:44:01;97869.47;;;2.02;68.55
73016;BME280;61893;50.074;14.440;2023-03-15T02:46:29;97875.09;;;2.09;64.49
73016;BME280;61893;50.074;14.440;2023-03-15T02:48:55;97885.75;;;2.18;66.67
73016;BME280;61893;50.074;14.440;2023-03-15T02:51:22;97883.75;;;2.33;69.07
73016;BME280;61893;50.074;14.440;2023-03-15T02:53:48;97889.63;;;2.48;70.26
73016;BME280;61893;50.074;14.440;2023-03-15T02:56:14;97902.66;;;2.61;67.40
73016;BME280;61893;50.074;14.440;2023-03-15T02:58:41;97894.88;;;2.59;69.38
73016;BME280;61893;50.074;14.440;2023-03-15T03:01:14;97902.88;;;2.80;67.75
73016;BME280;61893;50.074;14.440;2023-03-15T03:03:42;97908.38;;;2.88;67.90
73016;BME280;61893;50.074;14.440;2023-03-15T03:06:10;97908.03;;;2.93;68.68
73016;BME280;61893;50.074;14.440;2023-03-15T03:08:37;97913.53;;;2.90;66.28
73016;BME280;61893;50.074;14.440;2023-03-15T03:11:04;97917.22;;;2.99;68.43
73016;BME280;61893;50.074;14.440;2023-03-15T03:13:30;97917.56;;;2.83;68.32
73016;BME280;61893;50.074;14.440;2023-03-15T03:15:56;97922.38;;;2.78;68.55
73016;BME280;61893;50.074;14.440;2023-03-15T03:18:26;97928.09;;;2.83;63.03
73016;BME280;61893;50.074;14.440;2023-03-15T03:20:56;97939.56;;;2.93;67.77
73016;BME280;61893;50.074;14.440;2023-03-15T03:23:24;97940.88;;;2.99;65.22
73016;BME280;61893;50.074;14.440;2023-03-15T03:26:14;97933.97;;;2.98;63.27
73016;BME280;61893;50.074;14.440;2023-03-15T03:28:43;97944.69;;;2.94;65.25
73016;BME280;61893;50.074;14.440;2023-03-15T03:31:17;97948.63;;;2.89;63.25
73016;BME280;61893;50.074;14.440;2023-03-15T03:33:43;97951.97;;;2.91;66.07
73016;BME280;61893;50.074;14.440;2023-03-15T03:36:09;97950.19;;;3.03;69.60
73016;BME280;61893;50.074;14.440;2023-03-15T03:38:42;97943.75;;;3.29;71.10
73016;BME280;61893;50.074;14.440;2023-03-15T03:41:08;97955.78;;;3.43;68.39
73016;BME280;61893;50.074;14.440;2023-03-15T03:43:35;97950.91;;;3.27;66.28
73016;BME280;61893;50.074;14.440;2023-03-15T03:46:01;97954.03;;;3.32;67.94
73016;BME280;61893;50.074;14.440;2023-03-15T03:48:27;97956.16;;;3.05;62.25
73016;BME280;61893;50.074;14.440;2023-03-15T03:50:53;97952.47;;;3.19;66.33
73016;BME280;61893;50.074;14.440;2023-03-15T03:53:34;97951.25;;;3.23;65.89
73016;BME280;61893;50.074;14.440;2023-03-15T03:56:31;97959.75;;;3.26;67.79
73016;BME280;61893;50.074;14.440;2023-03-15T03:59:00;97962.00;;;3.08;66.65
73016;BME280;61893;50.074;14.440;2023-03-15T04:01:26;97973.00;;;3.25;63.53
73016;BME280;61893;50.074;14.440;2023-03-15T04:03:52;97974.47;;;3.06;64.08
73016;BME280;61893;50.074;14.440;2023-03-15T04:06:17;97973.97;;;3.12;65.06
73016;BME280;61893;50.074;14.440;2023-03-15T04:08:44;97982.94;;;3.21;63.23
73016;BME280;61893;50.074;14.440;2023-03-15T04:11:12;97989.88;;;3.33;59.97
73016;BME280;61893;50.074;14.440;2023-03-15T04:13:43;98001.09;;;3.24;60.22
73016;BME280;61893;50.074;14.440;2023-03-15T04:16:09;98008.41;;;3.21;61.99
73016;BME280;61893;50.074;14.440;2023-03-15T04:18:35;98012.78;;;3.20;63.67
73016;BME280;61893;50.074;14.440;2023-03-15T04:21:01;98011.72;;;3.11;60.53
73016;BME280;61893;50.074;14.440;2023-03-15T04:23:47;98019.59;;;3.11;61.36
73016;BME280;61893;50.074;14.440;2023-03-15T04:26:14;98026.28;;;2.93;64.32
73016;BME280;61893;50.074;14.440;2023-03-15T04:28:40;98026.72;;;2.76;62.38
73016;BME280;61893;50.074;14.440;2023-03-15T04:31:07;98028.78;;;2.83;63.59
73016;BME280;61893;50.074;14.440;2023-03-15T04:33:35;98034.66;;;2.98;63.75
73016;BME280;61893;50.074;14.440;2023-03-15T04:36:01;98042.88;;;2.93;63.87
73016;BME280;61893;50.074;14.440;2023-03-15T04:38:49;98046.84;;;2.99;66.73
73016;BME280;61893;50.074;14.440;2023-03-15T04:41:29;98051.84;;;2.91;68.73
73016;BME280;61893;50.074;14.440;2023-03-15T04:43:56;98055.69;;;2.98;66.09
73016;BME280;61893;50.074;14.440;2023-03-15T04:46:22;98048.75;;;3.08;69.48
73016;BME280;61893;50.074;14.440;2023-03-15T04:49:02;98060.69;;;2.90;69.07
73016;BME280;61893;50.074;14.440;2023-03-15T04:51:32;98063.47;;;2.64;64.60
73016;BME280;61893;50.074;14.440;2023-03-15T04:53:58;98086.84;;;2.56;66.71
73016;BME280;61893;50.074;14.440;2023-03-15T04:56:25;98086.16;;;2.65;65.46
73016;BME280;61893;50.074;14.440;2023-03-15T04:58:54;98088.03;;;2.52;65.13
73016;BME280;61893;50.074;14.440;2023-03-15T05:01:40;98084.06;;;2.46;66.04
73016;BME280;61893;50.074;14.440;2023-03-15T05:04:09;98080.28;;;2.62;67.72
73016;BME280;61893;50.074;14.440;2023-03-15T05:07:13;98095.50;;;2.69;69.95
73016;BME280;61893;50.074;14.440;2023-03-15T05:10:17;98087.34;;;2.61;66.90
73016;BME280;61893;50.074;14.440;2023-03-15T05:12:46;98098.75;;;2.49;66.57
73016;BME280;61893;50.074;14.440;2023-03-15T05:15:12;98100.22;;;2.40;66.72
73016;BME280;61893;50.074;14.440;2023-03-15T05:17:38;98092.31;;;2.53;68.81
73016;BME280;61893;50.074;14.440;2023-03-15T05:20:04;98093.81;;;2.44;68.19
73016;BME280;61893;50.074;14.440;2023-03-15T05:22:38;98106.50;;;2.27;66.65
73016;BME280;61893;50.074;14.440;2023-03-15T05:25:04;98108.41;;;2.24;68.07
73016;BME280;61893;50.074;14.440;2023-03-15T05:27:44;98110.81;;;2.28;68.18
73016;BME280;61893;50.074;14.440;2023-03-15T05:30:11;98110.88;;;2.39;70.51
73016;BME280;61893;50.074;14.440;2023-03-15T05:32:37;98116.56;;;2.33;67.69
73016;BME280;61893;50.074;14.440;2023-03-15T05:35:05;98118.44;;;2.31;68.05
73016;BME280;61893;50.074;14.440;2023-03-15T05:37:54;98118.06;;;2.24;69.31
73016;BME280;61893;50.074;14.440;2023-03-15T05:40:30;98130.84;;;2.29;69.15
73016;BME280;61893;50.074;14.440;2023-03-15T05:42:58;98130.69;;;2.19;67.63
73016;BME280;61893;50.074;14.440;2023-03-15T05:45:24;98144.63;;;2.19;70.54
73016;BME280;61893;50.074;14.440;2023-03-15T05:48:05;98145.59;;;2.18;68.58
73016;BME280;61893;50.074;14.440;2023-03-15T05:50:31;98144.03;;;2.03;68.62
73016;BME280;61893;50.074;14.440;2023-03-15T05:52:57;98155.09;;;1.95;69.50
73016;BME280;61893;50.074;14.440;2023-03-15T05:55:25;98162.00;;;1.96;68.34
73016;BME280;61893;50.074;14.440;2023-03-15T05:57:50;98157.72;;;1.95;68.98
73016;BME280;61893;50.074;14.440;2023-03-15T06:00:17;98160.47;;;1.81;67.98
73016;BME280;61893;50.074;14.440;2023-03-15T06:02:45;98162.34;;;1.92;69.19
73016;BME280;61893;50.074;14.440;2023-03-15T06:05:13;98173.25;;;1.98;68.29
73016;BME280;61893;50.074;14.440;2023-03-15T06:07:39;98187.41;;;1.96;69.34
73016;BME280;61893;50.074;14.440;2023-03-15T06:10:20;98197.34;;;2.16;68.05
73016;BME280;61893;50.074;14.440;2023-03-15T06:13:01;98197.59;;;2.74;64.66
73016;BME280;61893;50.074;14.440;2023-03-15T06:15:27;98198.31;;;4.04;63.03
73016;BME280;61893;50.074;14.440;2023-03-15T06:17:53;98196.59;;;4.92;61.97
73016;BME280;61893;50.074;14.440;2023-03-15T06:20:19;98205.19;;;5.89;58.89
73016;BME280;61893;50.074;14.440;2023-03-15T06:22:44;98208.47;;;6.73;54.39
73016;BME280;61893;50.074;14.440;2023-03-15T06:25:14;98208.53;;;7.32;50.73
73016;BME280;61893;50.074;14.440;2023-03-15T06:27:39;98215.84;;;8.33;47.41
73016;BME280;61893;50.074;14.440;2023-03-15T06:30:06;98212.69;;;8.57;45.75
73016;BME280;61893;50.074;14.440;2023-03-15T06:32:32;98213.16;;;9.16;45.52
73016;BME280;61893;50.074;14.440;2023-03-15T06:35:13;98220.00;;;9.37;43.07
73016;BME280;61893;50.074;14.440;2023-03-15T06:37:54;98223.34;;;9.83;43.77
73016;BME280;61893;50.074;14.440;2023-03-15T06:40:19;98229.09;;;9.78;42.97
73016;BME280;61893;50.074;14.440;2023-03-15T06:42:45;98221.47;;;10.01;41.72
73016;BME280;61893;50.074;14.440;2023-03-15T06:45:21;98228.97;;;9.80;40.82
73016;BME280;61893;50.074;14.440;2023-03-15T06:47:49;98235.56;;;9.93;40.65
73016;BME280;61893;50.074;14.440;2023-03-15T06:50:16;98234.72;;;10.88;40.23
73016;BME280;61893;50.074;14.440;2023-03-15T06:52:44;98237.16;;;11.64;36.62
73016;BME280;61893;50.074;14.440;2023-03-15T06:55:10;98238.34;;;12.11;35.94
73016;BME280;61893;50.074;14.440;2023-03-15T06:57:41;98239.28;;;12.43;35.55
73016;BME280;61893;50.074;14.440;2023-03-15T07:00:08;98237.72;;;12.96;33.69
73016;BME280;61893;50.074;14.440;2023-03-15T07:02:36;98244.59;;;13.21;32.86
73016;BME280;61893;50.074;14.440;2023-03-15T07:05:03;98253.06;;;13.33;32.91
73016;BME280;61893;50.074;14.440;2023-03-15T07:07:29;98254.41;;;12.50;33.55
73016;BME280;61893;50.074;14.440;2023-03-15T07:09:55;98257.13;;;12.81;33.63
73016;BME280;61893;50.074;14.440;2023-03-15T07:12:33;98261.06;;;13.33;33.39
73016;BME280;61893;50.074;14.440;2023-03-15T07:15:10;98258.22;;;14.18;32.22
73016;BME280;61893;50.074;14.440;2023-03-15T07:17:36;98263.25;;;13.98;31.72
73016;BME280;61893;50.074;14.440;2023-03-15T07:20:24;98268.69;;;14.28;31.06
73016;BME280;61893;50.074;14.440;2023-03-15T07:22:50;98272.44;;;14.72;30.19
73016;BME280;61893;50.074;14.440;2023-03-15T07:25:16;98277.25;;;14.09;31.58
73016;BME280;61893;50.074;14.440;2023-03-15T07:28:17;98277.28;;;15.13;29.27
73016;BME280;61893;50.074;14.440;2023-03-15T07:31:03;98283.16;;;14.72;29.42
73016;BME280;61893;50.074;14.440;2023-03-15T07:33:32;98294.41;;;14.14;29.76
73016;BME280;61893;50.074;14.440;2023-03-15T07:36:10;98294.88;;;14.85;29.49
73016;BME280;61893;50.074;14.440;2023-03-15T07:38:42;98298.38;;;15.01;29.30
73016;BME280;61893;50.074;14.440;2023-03-15T07:41:10;98293.53;;;16.05;28.42
73016;BME280;61893;50.074;14.440;2023-03-15T07:43:36;98303.31;;;16.13;27.80
73016;BME280;61893;50.074;14.440;2023-03-15T07:46:02;98305.13;;;13.91;30.52
73016;BME280;61893;50.074;14.440;2023-03-15T07:48:27;98303.56;;;13.20;31.26
73016;BME280;61893;50.074;14.440;2023-03-15T07:50:56;98312.56;;;13.27;31.86
73016;BME280;61893;50.074;14.440;2023-03-15T07:53:22;98306.66;;;14.09;30.82
73016;BME280;61893;50.074;14.440;2023-03-15T07:56:04;98307.34;;;14.78;30.07
73016;BME280;61893;50.074;14.440;2023-03-15T07:58:32;98297.69;;;13.79;30.10
73016;BME280;61893;50.074;14.440;2023-03-15T08:01:01;98302.63;;;14.80;28.81
73016;BME280;61893;50.074;14.440;2023-03-15T08:03:45;98296.19;;;15.41;28.26
73016;BME280;61893;50.074;14.440;2023-03-15T08:06:31;98301.50;;;15.55;28.27
73016;BME280;61893;50.074;14.440;2023-03-15T08:09:14;98303.75;;;16.16;26.27
73016;BME280;61893;50.074;14.440;2023-03-15T08:11:55;98296.47;;;16.95;25.35
73016;BME280;61893;50.074;14.440;2023-03-15T08:14:24;98299.03;;;16.18;25.29
73016;BME280;61893;50.074;14.440;2023-03-15T08:17:42;98300.78;;;14.96;27.03
73016;BME280;61893;50.074;14.440;2023-03-15T08:20:22;98299.63;;;14.46;28.56
73016;BME280;61893;50.074;14.440;2023-03-15T08:22:50;98298.28;;;13.89;27.70
73016;BME280;61893;50.074;14.440;2023-03-15T08:25:30;98296.84;;;15.28;26.05
73016;BME280;61893;50.074;14.440;2023-03-15T08:28:12;98306.22;;;15.68;25.34
73016;BME280;61893;50.074;14.440;2023-03-15T08:30:54;98311.19;;;15.93;25.80
73016;BME280;61893;50.074;14.440;2023-03-15T08:35:58;98321.22;;;15.84;25.16
73016;BME280;61893;50.074;14.440;2023-03-15T08:41:19;98319.69;;;14.64;26.15
73016;BME280;61893;50.074;14.440;2023-03-15T08:43:56;98316.25;;;15.30;25.46
73016;BME280;61893;50.074;14.440;2023-03-15T08:46:22;98312.19;;;13.61;26.96
73016;BME280;61893;50.074;14.440;2023-03-15T08:48:48;98314.69;;;12.92;27.68
73016;BME280;61893;50.074;14.440;2023-03-15T08:51:14;98326.50;;;12.17;29.82
73016;BME280;61893;50.074;14.440;2023-03-15T08:56:44;98320.03;;;12.92;28.21
73016;BME280;61893;50.074;14.440;2023-03-15T08:59:11;98317.84;;;13.35;26.76
73016;BME280;61893;50.074;14.440;2023-03-15T09:01:38;98325.38;;;12.92;27.75
73016;BME280;61893;50.074;14.440;2023-03-15T09:04:21;98325.81;;;12.56;28.12
73016;BME280;61893;50.074;14.440;2023-03-15T09:07:30;98329.91;;;11.36;29.78
73016;BME280;61893;50.074;14.440;2023-03-15T09:13:24;98331.63;;;11.62;29.05
73016;BME280;61893;50.074;14.440;2023-03-15T09:16:05;98334.00;;;13.11;26.89
73016;BME280;61893;50.074;14.440;2023-03-15T09:18:33;98335.78;;;13.18;27.25
73016;BME280;61893;50.074;14.440;2023-03-15T09:23:42;98341.31;;;10.52;29.01
73016;BME280;61893;50.074;14.440;2023-03-15T09:26:11;98338.84;;;12.18;28.49
73016;BME280;61893;50.074;14.440;2023-03-15T09:28:49;98339.13;;;12.65;26.84
73016;BME280;61893;50.074;14.440;2023-03-15T09:31:15;98345.50;;;13.11;26.85
73016;BME280;61893;50.074;14.440;2023-03-15T09:33:42;98348.28;;;13.34;26.48
73016;BME280;61893;50.074;14.440;2023-03-15T09:36:11;98338.72;;;13.71;26.10
73016;BME280;61893;50.074;14.440;2023-03-15T09:38:38;98345.94;;;13.62;25.73
73016;BME280;61893;50.074;14.440;2023-03-15T09:44:06;98346.50;;;13.02;25.23
73016;BME280;61893;50.074;14.440;2023-03-15T10:09:46;98348.72;;;10.66;28.06
73016;BME280;61893;50.074;14.440;2023-03-15T10:12:30;98361.00;;;10.59;30.23
73016;BME280;61893;50.074;14.440;2023-03-15T10:21:12;98350.47;;;10.83;29.62
73016;BME280;61893;50.074;14.440;2023-03-15T10:23:53;98343.88;;;10.18;30.78
73016;BME280;61893;50.074;14.440;2023-03-15T10:26:30;98349.44;;;9.70;30.40
73016;BME280;61893;50.074;14.440;2023-03-15T10:29:21;98354.69;;;9.62;31.04
73016;BME280;61893;50.074;14.440;2023-03-15T10:35:17;98341.91;;;9.30;32.34
73016;BME280;61893;50.074;14.440;2023-03-15T10:37:58;98342.34;;;9.25;33.09
73016;BME280;61893;50.074;14.440;2023-03-15T10:40:45;98348.78;;;9.41;32.72
73016;BME280;61893;50.074;14.440;2023-03-15T10:43:40;98344.34;;;9.77;32.99
73016;BME280;61893;50.074;14.440;2023-03-15T10:46:22;98352.03;;;9.62;34.07
73016;BME280;61893;50.074;14.440;2023-03-15T10:48:57;98342.56;;;9.32;33.63
73016;BME280;61893;50.074;14.440;2023-03-15T10:51:29;98342.47;;;9.24;33.95
73016;BME280;61893;50.074;14.440;2023-03-15T10:54:21;98347.03;;;9.04;34.37
73016;BME280;61893;50.074;14.440;2023-03-15T10:57:16;98332.97;;;8.66;35.49
73016;BME280;61893;50.074;14.440;2023-03-15T10:59:57;98338.06;;;8.87;35.81
73016;BME280;61893;50.074;14.440;2023-03-15T11:02:24;98335.91;;;9.00;35.67
73016;BME280;61893;50.074;14.440;2023-03-15T11:07:34;98322.41;;;9.57;35.69
73016;BME280;61893;50.074;14.440;2023-03-15T11:10:21;98338.75;;;9.62;35.03
73016;BME280;61893;50.074;14.440;2023-03-15T11:21:37;98341.75;;;8.10;39.77
73016;BME280;61893;50.074;14.440;2023-03-15T11:32:32;98332.81;;;8.11;40.18
73016;BME280;61893;50.074;14.440;2023-03-15T11:40:55;98332.06;;;7.21;41.60
73016;BME280;61893;50.074;14.440;2023-03-15T11:46:15;98328.38;;;7.82;41.16
73016;BME280;61893;50.074;14.440;2023-03-15T11:48:47;98330.16;;;7.62;41.51
73016;BME280;61893;50.074;14.440;2023-03-15T11:57:04;98339.69;;;7.15;44.16
73016;BME280;61893;50.074;14.440;2023-03-15T12:02:34;98325.72;;;7.73;43.19
73016;BME280;61893;50.074;14.440;2023-03-15T12:14:35;98319.44;;;7.44;43.54
73016;BME280;61893;50.074;14.440;2023-03-15T12:23:31;98333.09;;;7.69;42.29
73016;BME280;61893;50.074;14.440;2023-03-15T12:27:02;98320.53;;;7.81;42.23
73016;BME280;61893;50.074;14.440;2023-03-15T12:29:18;98313.88;;;7.48;43.36
73016;BME280;61893;50.074;14.440;2023-03-15T12:32:12;98325.75;;;7.03;44.89
73016;BME280;61893;50.074;14.440;2023-03-15T12:35:07;98324.84;;;6.83;47.44
73016;BME280;61893;50.074;14.440;2023-03-15T12:41:04;98345.34;;;6.91;52.35
73016;BME280;61893;50.074;14.440;2023-03-15T12:43:44;98342.13;;;6.87;52.89
73016;BME280;61893;50.074;14.440;2023-03-15T12:52:39;98355.72;;;6.73;56.15
73016;BME280;61893;50.074;14.440;2023-03-15T12:55:39;98360.19;;;7.22;56.39
73016;BME280;61893;50.074;14.440;2023-03-15T12:58:28;98368.19;;;7.42;54.92
73016;BME280;61893;50.074;14.440;2023-03-15T13:01:34;98362.84;;;7.13;56.66
73016;BME280;61893;50.074;14.440;2023-03-15T13:04:34;98364.84;;;6.59;58.48
73016;BME280;61893;50.074;14.440;2023-03-15T13:16:35;98373.28;;;6.84;58.80
73016;BME280;61893;50.074;14.440;2023-03-15T13:23:16;98369.03;;;6.41;58.32
73016;BME280;61893;50.074;14.440;2023-03-15T13:29:16;98378.38;;;6.96;57.72
73016;BME280;61893;50.074;14.440;2023-03-15T13:32:18;98388.97;;;7.06;57.32
73016;BME280;61893;50.074;14.440;2023-03-15T13:35:00;98388.19;;;6.54;58.00
73016;BME280;61893;50.074;14.440;2023-03-15T13:37:41;98387.47;;;6.52;57.09
73016;BME280;61893;50.074;14.440;2023-03-15T13:42:59;98388.66;;;6.38;58.66
73016;BME280;61893;50.074;14.440;2023-03-15T13:45:42;98408.66;;;5.99;60.05
73016;BME280;61893;50.074;14.440;2023-03-15T13:48:26;98418.81;;;5.60;63.03
73016;BME280;61893;50.074;14.440;2023-03-15T13:51:22;98441.78;;;5.26;66.72
73016;BME280;61893;50.074;14.440;2023-03-15T14:02:19;98427.38;;;5.52;70.23
73016;BME280;61893;50.074;14.440;2023-03-15T14:08:05;98442.16;;;5.32;72.93
73016;BME280;61893;50.074;14.440;2023-03-15T14:15:47;98455.56;;;4.02;77.57
73016;BME280;61893;50.074;14.440;2023-03-15T14:18:36;98444.31;;;4.00;77.89
73016;BME280;61893;50.074;14.440;2023-03-15T14:21:14;98452.00;;;3.79;79.26
73016;BME280;61893;50.074;14.440;2023-03-15T14:23:45;98457.19;;;3.44;80.16
73016;BME280;61893;50.074;14.440;2023-03-15T14:26:28;98456.34;;;3.31;81.20
73016;BME280;61893;50.074;14.440;2023-03-15T14:29:38;98471.13;;;3.08;82.51
73016;BME280;61893;50.074;14.440;2023-03-15T15:36:54;98474.69;;;3.69;83.02
73016;BME280;61893;50.074;14.440;2023-03-15T15:39:35;98476.72;;;3.53;82.82
73016;BME280;61893;50.074;14.440;2023-03-15T15:42:23;98488.81;;;3.92;84.47
73016;BME280;61893;50.074;14.440;2023-03-15T15:45:09;98486.38;;;3.89;80.19
73016;BME280;61893;50.074;14.440;2023-03-15T15:54:24;98486.25;;;4.15;82.31
73016;BME280;61893;50.074;14.440;2023-03-15T16:00:27;98478.22;;;4.05;82.12
73016;BME280;61893;50.074;14.440;2023-03-15T16:03:27;98485.28;;;4.04;81.59
73016;BME280;61893;50.074;14.440;2023-03-15T16:15:05;98502.63;;;3.83;78.93
73016;BME280;61893;50.074;14.440;2023-03-15T16:17:53;98507.41;;;4.02;79.40
73016;BME280;61893;50.074;14.440;2023-03-15T16:20:37;98513.50;;;4.02;78.48
73016;BME280;61893;50.074;14.440;2023-03-15T16:31:45;98524.78;;;3.92;79.44
73016;BME280;61893;50.074;14.440;2023-03-15T16:34:13;98524.31;;;3.87;78.18
73016;BME280;61893;50.074;14.440;2023-03-15T16:36:55;98555.03;;;3.86;77.73
73016;BME280;61893;50.074;14.440;2023-03-15T16:39:59;98559.56;;;2.96;80.15
73016;BME280;61893;50.074;14.440;2023-03-15T16:51:21;98602.78;;;1.55;87.72
73016;BME280;61893;50.074;14.440;2023-03-15T16:54:18;98604.38;;;1.43;89.24
73016;BME280;61893;50.074;14.440;2023-03-15T16:57:00;98600.88;;;1.28;89.62
73016;BME280;61893;50.074;14.440;2023-03-15T16:59:42;98609.97;;;1.23;90.26
73016;BME280;61893;50.074;14.440;2023-03-15T17:02:25;98611.84;;;1.21;89.87
73016;BME280;61893;50.074;14.440;2023-03-15T17:08:17;98602.94;;;1.09;90.93
73016;BME280;61893;50.074;14.440;2023-03-15T17:11:01;98601.16;;;1.09;91.48
73016;BME280;61893;50.074;14.440;2023-03-15T17:13:46;98602.59;;;1.15;91.43
73016;BME280;61893;50.074;14.440;2023-03-15T17:21:57;98611.31;;;0.85;91.78
73016;BME280;61893;50.074;14.440;2023-03-15T17:30:39;98620.59;;;1.05;93.79
73016;BME280;61893;50.074;14.440;2023-03-15T17:39:33;98628.91;;;1.42;93.20
73016;BME280;61893;50.074;14.440;2023-03-15T17:42:20;98633.69;;;1.50;93.44
73016;BME280;61893;50.074;14.440;2023-03-15T17:50:46;98651.22;;;1.05;92.89
73016;BME280;61893;50.074;14.440;2023-03-15T17:53:29;98653.53;;;0.95;92.45
73016;BME280;61893;50.074;14.440;2023-03-15T17:56:11;98656.59;;;0.87;92.66
73016;BME280;61893;50.074;14.440;2023-03-15T17:58:52;98655.94;;;0.84;92.94
73016;BME280;61893;50.074;14.440;2023-03-15T18:12:47;98667.91;;;0.88;95.71
73016;BME280;61893;50.074;14.440;2023-03-15T18:24:32;98682.13;;;0.68;93.59
73016;BME280;61893;50.074;14.440;2023-03-15T18:38:21;98705.16;;;0.93;93.48
73016;BME280;61893;50.074;14.440;2023-03-15T18:44:10;98712.38;;;0.74;93.64
73016;BME280;61893;50.074;14.440;2023-03-15T18:46:51;98720.00;;;0.78;93.87
73016;BME280;61893;50.074;14.440;2023-03-15T18:49:42;98720.88;;;1.09;96.14
73016;BME280;61893;50.074;14.440;2023-03-15T18:52:49;98719.25;;;0.60;94.34
73016;BME280;61893;50.074;14.440;2023-03-15T18:55:31;98723.63;;;0.60;93.22
73016;BME280;61893;50.074;14.440;2023-03-15T19:01:17;98724.56;;;0.59;93.32
73016;BME280;61893;50.074;14.440;2023-03-15T19:07:26;98723.06;;;0.55;93.23